Terminal Aerodrome Forecast
Issued by NWS

Home | Current Version | Previous Version | Text Only | Print | Product List | Glossary On
Versions: 1 2 3 4 5 6 7 8 9 10 11 12 13 14
512
FTUS45 KVEF 251731
TAFHND
TAF
KHND 251731Z 2518/2618 19010KT P6SM FEW140
     FM251900 21015G25KT P6SM FEW120
     FM260300 19012KT P6SM FEW120
     FM261000 18007KT P6SM SKC=

USA.gov is the U.S. government's official web portal to all federal, state and local government web resources and services.